createdAt,value
2022-08-25T00:02:26.136Z,20.40
2022-08-25T00:05:13.901Z,20.30
2022-08-25T00:08:06.190Z,20.30
2022-08-25T00:11:00.327Z,20.20
2022-08-25T00:13:55.750Z,20.30
2022-08-25T00:16:43.389Z,20.20
2022-08-25T00:19:33.341Z,20.30
2022-08-25T00:22:20.335Z,20.20
2022-08-25T00:25:09.994Z,20.20
2022-08-25T00:27:58.966Z,20.10
2022-08-25T00:30:46.321Z,20.10
2022-08-25T00:38:52.559Z,20.00
2022-08-25T00:41:44.070Z,20.00
2022-08-25T00:44:35.388Z,20.10
2022-08-25T00:47:22.716Z,20.00
2022-08-25T00:50:12.110Z,20.00
2022-08-25T00:53:02.615Z,19.90
2022-08-25T00:55:50.374Z,19.80
2022-08-25T00:58:40.129Z,19.80
2022-08-25T01:01:28.073Z,19.80
2022-08-25T01:04:15.291Z,19.80
2022-08-25T01:07:03.334Z,19.80
2022-08-25T01:09:53.446Z,19.80
2022-08-25T01:17:09.580Z,19.80
2022-08-25T01:19:56.699Z,19.80
2022-08-25T01:22:45.975Z,19.80
2022-08-25T01:25:47.083Z,19.70
2022-08-25T01:28:34.865Z,19.70
2022-08-25T01:31:24.105Z,19.70
2022-08-25T01:34:12.859Z,19.70
2022-08-25T01:37:00.610Z,19.70
2022-08-25T01:39:49.302Z,19.60
2022-08-25T01:42:47.475Z,19.60
2022-08-25T01:45:35.067Z,19.60
2022-08-25T01:48:22.202Z,19.60
2022-08-25T01:51:09.427Z,19.50
2022-08-25T01:53:56.862Z,19.40
2022-08-25T01:56:45.621Z,19.40
2022-08-25T01:59:32.990Z,19.40
2022-08-25T02:02:20.224Z,19.30
2022-08-25T02:05:08.936Z,19.30
2022-08-25T02:07:55.995Z,19.30
2022-08-25T02:10:43.205Z,19.40
2022-08-25T02:13:32.515Z,19.30
2022-08-25T02:16:23.824Z,19.30
2022-08-25T02:19:12.896Z,19.40
2022-08-25T02:22:00.635Z,19.40
2022-08-25T02:24:48.022Z,19.30
2022-08-25T02:27:35.333Z,19.30
2022-08-25T02:30:24.259Z,19.30
2022-08-25T02:33:37.362Z,19.30
2022-08-25T02:36:24.335Z,19.20
2022-08-25T02:39:12.354Z,19.20
2022-08-25T02:41:59.927Z,19.20
2022-08-25T02:44:48.102Z,19.30
2022-08-25T02:47:37.131Z,19.20
2022-08-25T02:50:24.847Z,19.20
2022-08-25T02:53:12.049Z,19.10
2022-08-25T02:56:01.035Z,19.20
2022-08-25T02:58:48.773Z,19.10
2022-08-25T03:01:36.315Z,19.20
2022-08-25T03:04:24.944Z,19.20
2022-08-25T03:07:12.673Z,19.10
2022-08-25T03:10:00.162Z,19.10
2022-08-25T03:12:47.918Z,19.10
2022-08-25T03:15:37.702Z,19.10
2022-08-25T03:18:25.254Z,19.00
2022-08-25T03:21:15.806Z,19.00
2022-08-25T03:24:03.603Z,19.00
2022-08-25T03:26:56.067Z,18.90
2022-08-25T03:29:43.857Z,18.90
2022-08-25T03:32:31.390Z,18.80
2022-08-25T03:35:19.138Z,18.90
2022-08-25T03:38:08.008Z,18.90
2022-08-25T03:40:56.025Z,18.80
2022-08-25T03:43:43.957Z,18.80
2022-08-25T03:46:34.366Z,18.70
2022-08-25T03:49:24.155Z,18.80
2022-08-25T03:52:11.810Z,18.80
2022-08-25T03:55:00.875Z,18.80
2022-08-25T03:57:47.843Z,18.80
2022-08-25T04:00:35.277Z,18.80
2022-08-25T04:03:22.709Z,18.90
2022-08-25T04:06:10.627Z,18.90
2022-08-25T04:08:58.700Z,18.80
2022-08-25T04:11:47.453Z,18.80
2022-08-25T04:14:39.180Z,18.90
2022-08-25T04:17:26.929Z,18.80
2022-08-25T04:20:14.666Z,18.80
2022-08-25T04:23:01.930Z,18.70
2022-08-25T04:25:49.415Z,18.80
2022-08-25T04:28:37.983Z,18.80
2022-08-25T04:31:25.415Z,18.80
2022-08-25T04:39:22.872Z,18.90
2022-08-25T04:42:10.337Z,18.90
2022-08-25T04:44:59.770Z,18.90
2022-08-25T04:47:48.157Z,18.90
2022-08-25T04:50:40.225Z,18.90
2022-08-25T04:53:27.239Z,18.90
2022-08-25T04:56:17.408Z,19.00
2022-08-25T04:59:06.741Z,19.00
2022-08-25T05:01:55.552Z,19.00
2022-08-25T05:04:43.038Z,19.10
2022-08-25T05:07:30.119Z,19.20
2022-08-25T05:10:17.594Z,19.30
2022-08-25T05:13:05.720Z,19.30
2022-08-25T05:15:55.523Z,19.30
2022-08-25T05:18:45.090Z,19.30
2022-08-25T05:21:33.394Z,19.40
2022-08-25T05:24:22.016Z,19.30
2022-08-25T05:27:09.258Z,19.30
2022-08-25T05:29:56.511Z,19.40
2022-08-25T05:32:43.958Z,19.20
2022-08-25T05:35:32.642Z,19.30
2022-08-25T05:38:20.419Z,19.40
2022-08-25T05:41:10.209Z,19.40
2022-08-25T05:43:58.950Z,19.40
2022-08-25T05:46:47.249Z,19.50
2022-08-25T05:49:34.737Z,19.40
2022-08-25T05:52:23.525Z,19.40
2022-08-25T05:55:11.014Z,19.40
2022-08-25T05:57:58.889Z,19.40
2022-08-25T06:00:46.186Z,19.20
2022-08-25T06:03:32.140Z,19.20
2022-08-25T06:06:19.205Z,19.10
2022-08-25T06:09:08.554Z,19.20
2022-08-25T06:11:55.992Z,19.30
2022-08-25T06:14:43.762Z,19.30
2022-08-25T06:17:30.885Z,19.30
2022-08-25T06:20:20.052Z,19.30
2022-08-25T06:23:12.925Z,19.30
2022-08-25T06:26:01.901Z,19.40
2022-08-25T06:28:50.696Z,19.40
2022-08-25T06:31:37.815Z,19.50
2022-08-25T06:34:34.223Z,19.40
2022-08-25T06:37:25.210Z,19.30
2022-08-25T06:40:13.782Z,19.50
2022-08-25T06:43:02.166Z,19.50
2022-08-25T06:45:50.017Z,19.60
2022-08-25T06:48:37.685Z,19.70
2022-08-25T06:51:36.053Z,19.70
2022-08-25T06:54:23.646Z,19.80
2022-08-25T06:57:10.883Z,19.80
2022-08-25T06:59:59.435Z,19.60
2022-08-25T07:02:47.078Z,19.70
2022-08-25T07:05:43.626Z,19.80
2022-08-25T07:08:31.199Z,19.80
2022-08-25T07:11:21.360Z,19.80
2022-08-25T07:14:10.905Z,19.80
2022-08-25T07:17:12.064Z,19.90
2022-08-25T07:19:59.745Z,20.00
2022-08-25T07:22:46.912Z,20.00
2022-08-25T07:25:34.467Z,20.10
2022-08-25T07:28:23.671Z,20.00
2022-08-25T07:31:13.214Z,20.10
2022-08-25T07:34:18.955Z,20.20
2022-08-25T07:37:06.218Z,20.10
2022-08-25T07:39:53.625Z,20.30
2022-08-25T07:42:41.499Z,20.40
2022-08-25T07:45:31.333Z,20.50
2022-08-25T07:48:20.538Z,20.50
2022-08-25T07:51:11.019Z,20.50
2022-08-25T07:53:58.671Z,20.50
2022-08-25T07:56:48.283Z,20.60
2022-08-25T07:59:43.414Z,20.70
2022-08-25T08:02:30.597Z,20.80
2022-08-25T08:05:18.076Z,20.70
2022-08-25T08:08:07.146Z,20.80
2022-08-25T08:11:04.258Z,21.00
2022-08-25T08:13:52.868Z,21.10
2022-08-25T08:16:40.415Z,21.20
2022-08-25T08:19:29.316Z,21.20
2022-08-25T08:22:22.474Z,21.50
2022-08-25T08:30:27.987Z,21.80
2022-08-25T08:33:16.082Z,21.70
2022-08-25T08:36:06.475Z,21.70
2022-08-25T08:38:54.043Z,22.10
2022-08-25T08:42:11.668Z,22.30
2022-08-25T08:45:09.569Z,22.90
2022-08-25T08:48:11.739Z,23.20
2022-08-25T08:51:10.005Z,23.40
2022-08-25T08:54:01.012Z,23.30
2022-08-25T08:56:51.229Z,23.00
2022-08-25T08:59:49.859Z,23.10
2022-08-25T09:02:51.665Z,23.50
2022-08-25T09:05:47.328Z,24.00
2022-08-25T09:08:35.222Z,24.30
2022-08-25T09:11:32.986Z,24.70
2022-08-25T09:14:33.970Z,24.90
2022-08-25T09:17:29.622Z,24.10
2022-08-25T09:20:50.604Z,24.00
2022-08-25T09:23:53.452Z,23.80
2022-08-25T09:26:46.277Z,24.20
2022-08-25T09:29:47.849Z,24.30
2022-08-25T09:32:40.390Z,24.20
2022-08-25T09:35:29.741Z,24.40
2022-08-25T09:38:17.144Z,24.00
2022-08-25T09:41:07.543Z,24.30
2022-08-25T09:43:55.482Z,24.40
2022-08-25T09:46:54.936Z,23.90
2022-08-25T09:49:44.310Z,23.90
2022-08-25T09:52:35.469Z,24.10
2022-08-25T09:55:34.302Z,24.20
2022-08-25T09:58:25.752Z,24.40
2022-08-25T10:01:15.505Z,24.20
2022-08-25T10:04:13.984Z,24.20
2022-08-25T10:07:22.396Z,24.00
2022-08-25T10:10:23.295Z,24.10
2022-08-25T10:13:15.790Z,24.80
2022-08-25T10:16:24.873Z,25.20
2022-08-25T10:19:14.816Z,25.60
2022-08-25T10:22:10.886Z,25.70
2022-08-25T10:24:58.511Z,25.60
2022-08-25T10:27:53.673Z,25.40
2022-08-25T10:30:57.041Z,25.10
2022-08-25T10:33:56.453Z,25.00
2022-08-25T10:36:52.914Z,24.90
2022-08-25T10:39:46.006Z,24.90
2022-08-25T10:42:51.227Z,24.50
2022-08-25T10:45:44.721Z,24.70
2022-08-25T10:48:50.730Z,25.00
2022-08-25T10:51:54.283Z,24.90
2022-08-25T10:54:48.319Z,25.20
2022-08-25T10:57:39.101Z,25.40
2022-08-25T11:00:33.295Z,25.50
2022-08-25T11:03:35.326Z,25.70
2022-08-25T11:06:31.296Z,25.90
2022-08-25T11:09:24.351Z,25.50
2022-08-25T11:17:35.835Z,25.30
2022-08-25T11:20:30.002Z,25.40
2022-08-25T11:23:25.265Z,25.70
2022-08-25T11:26:14.463Z,25.90
2022-08-25T11:29:05.708Z,26.10
2022-08-25T11:32:01.161Z,26.10
2022-08-25T11:34:48.913Z,26.00
2022-08-25T11:37:39.867Z,25.90
2022-08-25T11:40:41.925Z,26.10
2022-08-25T11:47:35.833Z,26.40
2022-08-25T11:50:31.058Z,26.20
2022-08-25T11:53:28.146Z,26.00
2022-08-25T11:56:34.994Z,26.00
2022-08-25T12:00:05.303Z,26.10
2022-08-25T12:02:53.620Z,26.20
2022-08-25T12:05:53.304Z,26.50
2022-08-25T12:08:52.811Z,26.40
2022-08-25T12:11:54.527Z,26.30
2022-08-25T12:14:47.894Z,26.30
2022-08-25T12:17:40.098Z,26.60
2022-08-25T12:21:04.398Z,26.80
2022-08-25T12:24:11.823Z,26.70
2022-08-25T12:27:06.607Z,26.80
2022-08-25T12:29:59.514Z,26.60
2022-08-25T12:33:07.441Z,26.50
2022-08-25T12:35:59.208Z,26.60
2022-08-25T12:38:52.066Z,26.70
2022-08-25T12:41:54.700Z,26.90
2022-08-25T12:44:47.128Z,26.90
2022-08-25T12:47:35.381Z,26.90
2022-08-25T12:50:33.539Z,26.90
2022-08-25T12:53:29.151Z,26.90
2022-08-25T12:56:28.643Z,26.90
2022-08-25T12:59:19.494Z,26.90
2022-08-25T13:02:39.766Z,27.00
2022-08-25T13:06:00.311Z,27.20
2022-08-25T13:09:08.358Z,27.20
2022-08-25T13:12:03.308Z,27.20
2022-08-25T13:14:55.257Z,27.20
2022-08-25T13:17:44.253Z,27.40
2022-08-25T13:20:36.013Z,27.50
2022-08-25T13:23:29.248Z,27.60
2022-08-25T13:26:22.190Z,27.40
2022-08-25T13:29:17.727Z,27.40
2022-08-25T13:32:09.568Z,27.20
2022-08-25T13:35:15.419Z,27.30
2022-08-25T13:38:15.214Z,27.20
2022-08-25T13:41:09.345Z,27.10
2022-08-25T13:44:01.026Z,27.20
2022-08-25T13:47:05.640Z,27.50
2022-08-25T13:49:56.580Z,27.40
2022-08-25T13:52:51.033Z,27.30
2022-08-25T13:55:51.087Z,27.30
2022-08-25T13:58:45.562Z,27.30
2022-08-25T14:01:47.591Z,27.20
2022-08-25T14:04:51.083Z,27.10
2022-08-25T14:07:42.749Z,26.80
2022-08-25T14:10:40.602Z,26.90
2022-08-25T14:13:33.008Z,27.20
2022-08-25T14:16:22.900Z,27.20
2022-08-25T14:19:20.425Z,27.40
2022-08-25T14:22:07.842Z,27.30
2022-08-25T14:24:55.765Z,27.30
2022-08-25T14:28:06.532Z,27.50
2022-08-25T14:30:56.869Z,27.50
2022-08-25T14:33:49.934Z,27.30
2022-08-25T14:36:38.251Z,27.20
2022-08-25T14:39:26.254Z,26.90
2022-08-25T14:42:14.195Z,26.80
2022-08-25T14:45:02.619Z,26.90
2022-08-25T14:47:50.216Z,26.90
2022-08-25T14:50:38.032Z,27.00
2022-08-25T14:53:28.881Z,27.20
2022-08-25T14:56:15.981Z,27.30
2022-08-25T14:59:04.894Z,27.40
2022-08-25T15:01:54.101Z,27.50
2022-08-25T15:04:48.920Z,27.50
2022-08-25T15:07:54.751Z,27.50
2022-08-25T15:10:41.898Z,27.40
2022-08-25T15:13:30.419Z,27.30
2022-08-25T15:16:23.384Z,27.20
2022-08-25T15:19:15.859Z,26.90
2022-08-25T15:22:02.829Z,26.90
2022-08-25T15:24:50.408Z,27.00
2022-08-25T15:27:40.109Z,27.00
2022-08-25T15:30:30.680Z,27.10
2022-08-25T15:33:18.754Z,27.20
2022-08-25T15:36:11.080Z,27.50
2022-08-25T15:39:02.333Z,27.50
2022-08-25T15:41:52.500Z,27.50
2022-08-25T15:44:39.865Z,27.50
2022-08-25T15:47:29.988Z,27.40
2022-08-25T15:50:24.091Z,27.40
2022-08-25T15:53:14.543Z,27.40
2022-08-25T15:56:04.879Z,27.40
2022-08-25T15:58:55.058Z,27.30
2022-08-25T16:01:43.659Z,27.30
2022-08-25T16:04:31.271Z,27.20
2022-08-25T16:07:18.527Z,27.30
2022-08-25T16:10:07.946Z,27.30
2022-08-25T16:12:54.911Z,27.30
2022-08-25T16:15:46.904Z,27.30
2022-08-25T16:18:40.382Z,27.20
2022-08-25T16:21:30.517Z,27.30
2022-08-25T16:24:17.662Z,27.30
2022-08-25T16:27:11.505Z,27.20
2022-08-25T16:29:59.594Z,27.30
2022-08-25T16:32:47.087Z,27.30
2022-08-25T16:35:35.221Z,27.10
2022-08-25T16:38:27.891Z,27.10
2022-08-25T16:42:05.839Z,27.10
2022-08-25T16:44:55.640Z,27.10
2022-08-25T16:47:43.292Z,27.10
2022-08-25T16:50:31.214Z,27.00
2022-08-25T16:53:39.028Z,27.00
2022-08-25T16:57:42.894Z,26.90
2022-08-25T17:00:32.175Z,26.80
2022-08-25T17:03:19.625Z,26.60
2022-08-25T17:06:08.699Z,26.70
2022-08-25T17:08:56.700Z,26.70
2022-08-25T17:11:47.665Z,26.60
2022-08-25T17:14:34.750Z,26.60
2022-08-25T17:17:23.671Z,26.60
2022-08-25T17:20:14.680Z,26.50
2022-08-25T17:23:02.098Z,26.60
2022-08-25T17:26:00.100Z,26.50
2022-08-25T17:28:49.001Z,26.40
2022-08-25T17:31:39.769Z,26.40
2022-08-25T17:34:29.086Z,26.30
2022-08-25T17:37:16.062Z,26.20
2022-08-25T17:40:04.949Z,26.20
2022-08-25T17:42:52.811Z,26.20
2022-08-25T17:45:40.854Z,26.20
2022-08-25T17:48:29.072Z,26.10
2022-08-25T17:51:22.910Z,25.90
2022-08-25T17:54:09.879Z,25.90
2022-08-25T17:56:58.337Z,25.80
2022-08-25T17:59:46.237Z,25.70
2022-08-25T18:02:54.567Z,25.60
2022-08-25T18:05:41.989Z,25.60
2022-08-25T18:08:34.975Z,25.60
2022-08-25T18:11:24.574Z,25.60
2022-08-25T18:14:13.853Z,25.50
2022-08-25T18:17:03.590Z,25.40
2022-08-25T18:19:51.988Z,25.30
2022-08-25T18:22:41.571Z,25.20
2022-08-25T18:25:33.102Z,25.10
2022-08-25T18:28:21.172Z,25.00
2022-08-25T18:31:08.473Z,24.90
2022-08-25T18:33:55.802Z,24.90
2022-08-25T18:36:43.005Z,24.80
2022-08-25T18:39:49.927Z,24.70
2022-08-25T18:42:38.475Z,24.60
2022-08-25T18:45:28.168Z,24.50
2022-08-25T18:48:16.639Z,24.50
2022-08-25T18:51:04.287Z,24.40
2022-08-25T18:58:20.325Z,24.40
2022-08-25T19:01:07.778Z,24.30
2022-08-25T19:03:58.769Z,24.30
2022-08-25T19:06:45.935Z,24.20
2022-08-25T19:14:53.383Z,24.00
2022-08-25T19:17:41.092Z,23.80
2022-08-25T19:20:30.426Z,23.70
2022-08-25T19:23:18.382Z,23.40
2022-08-25T19:26:07.858Z,23.50
2022-08-25T19:29:01.098Z,23.40
2022-08-25T19:31:50.355Z,23.20
2022-08-25T19:34:42.720Z,23.20
2022-08-25T19:42:41.104Z,23.00
2022-08-25T19:45:28.442Z,22.80
2022-08-25T19:48:17.615Z,22.70
2022-08-25T19:51:04.687Z,22.70
2022-08-25T19:53:55.240Z,22.90
2022-08-25T19:56:54.464Z,23.00
2022-08-25T19:59:44.778Z,22.90
2022-08-25T20:02:32.152Z,22.80
2022-08-25T20:05:23.856Z,22.70
2022-08-25T20:08:11.253Z,22.50
2022-08-25T20:10:58.381Z,22.40
2022-08-25T20:13:45.683Z,22.10
2022-08-25T20:16:36.273Z,22.10
2022-08-25T20:19:23.189Z,22.30
2022-08-25T20:22:12.154Z,22.40
2022-08-25T20:25:13.102Z,22.50
2022-08-25T20:28:01.561Z,22.60
2022-08-25T20:30:48.995Z,22.50
2022-08-25T20:33:36.251Z,22.40
2022-08-25T20:41:42.967Z,22.40
2022-08-25T20:44:41.299Z,22.30
2022-08-25T20:47:28.982Z,22.30
2022-08-25T20:50:16.681Z,22.20
2022-08-25T20:53:13.635Z,22.10
2022-08-25T20:56:01.380Z,21.90
2022-08-25T20:58:50.045Z,21.90
2022-08-25T21:01:41.177Z,21.90
2022-08-25T21:04:30.194Z,21.80
2022-08-25T21:07:18.365Z,21.60
2022-08-25T21:10:10.692Z,21.60
2022-08-25T21:13:01.483Z,21.60
2022-08-25T21:15:50.398Z,21.60
2022-08-25T21:18:37.399Z,21.50
2022-08-25T21:21:25.465Z,21.40
2022-08-25T21:24:13.209Z,21.40
2022-08-25T21:27:00.678Z,21.30
2022-08-25T21:29:54.904Z,21.30
2022-08-25T21:32:53.053Z,21.40
2022-08-25T21:35:41.099Z,21.40
2022-08-25T21:38:30.092Z,21.40
2022-08-25T21:41:19.882Z,21.50
2022-08-25T21:44:08.204Z,21.60
2022-08-25T21:46:55.118Z,21.60
2022-08-25T21:49:43.807Z,21.80
2022-08-25T21:52:31.222Z,21.70
2022-08-25T21:55:19.105Z,21.80
2022-08-25T21:58:06.367Z,21.70
2022-08-25T22:00:53.336Z,21.90
2022-08-25T22:03:41.047Z,21.80
2022-08-25T22:06:30.550Z,21.80
2022-08-25T22:09:17.836Z,21.80
2022-08-25T22:12:06.859Z,21.90
2022-08-25T22:14:54.273Z,21.90
2022-08-25T22:17:41.645Z,21.90
2022-08-25T22:20:29.478Z,22.00
2022-08-25T22:23:20.077Z,22.00
2022-08-25T22:26:07.535Z,22.10
2022-08-25T22:28:54.899Z,22.10
2022-08-25T22:31:42.205Z,22.10
2022-08-25T22:34:30.273Z,22.10
2022-08-25T22:42:39.536Z,22.00
2022-08-25T22:45:27.818Z,22.10
2022-08-25T22:48:14.920Z,22.10
2022-08-25T22:51:08.090Z,22.00
2022-08-25T22:53:55.667Z,22.00
2022-08-25T22:56:43.395Z,22.00
2022-08-25T22:59:32.203Z,22.00
2022-08-25T23:02:19.437Z,22.00
2022-08-25T23:05:08.235Z,22.00
2022-08-25T23:07:55.626Z,22.00
2022-08-25T23:10:48.927Z,22.00
2022-08-25T23:13:36.479Z,22.00
2022-08-25T23:16:28.374Z,22.00
2022-08-25T23:19:16.443Z,22.10
2022-08-25T23:22:13.487Z,22.10
2022-08-25T23:25:03.468Z,22.20
2022-08-25T23:28:00.171Z,22.20
2022-08-25T23:30:57.145Z,22.20
2022-08-25T23:33:47.960Z,22.20
2022-08-25T23:36:36.875Z,22.10
2022-08-25T23:39:24.115Z,22.10
2022-08-25T23:42:11.102Z,22.10
2022-08-25T23:44:58.531Z,22.10
2022-08-25T23:47:45.911Z,22.00
2022-08-25T23:50:40.177Z,22.00
2022-08-25T23:53:27.284Z,21.90
2022-08-25T23:56:14.447Z,21.90
2022-08-25T23:59:03.007Z,21.90
